sensor_id;sensor_type;location;lat;lon;timestamp;pressure;altitude;pressure_sealevel;temperature;humidity
42671;BME280;28283;55.426;37.756;2023-03-23T00:01:54;99208.31;;;5.06;66.58
42671;BME280;28283;55.426;37.756;2023-03-23T00:06:54;99216.13;;;5.08;66.31
42671;BME280;28283;55.426;37.756;2023-03-23T00:11:55;99210.50;;;5.03;66.48
42671;BME280;28283;55.426;37.756;2023-03-23T00:16:57;99206.97;;;5.02;66.89
42671;BME280;28283;55.426;37.756;2023-03-23T00:21:57;99218.47;;;5.03;66.73
42671;BME280;28283;55.426;37.756;2023-03-23T00:27:00;99209.81;;;5.01;66.83
42671;BME280;28283;55.426;37.756;2023-03-23T00:32:03;99220.94;;;5.04;67.15
42671;BME280;28283;55.426;37.756;2023-03-23T00:37:03;99213.31;;;5.01;67.23
42671;BME280;28283;55.426;37.756;2023-03-23T00:42:04;99210.97;;;4.98;67.08
42671;BME280;28283;55.426;37.756;2023-03-23T00:47:04;99217.50;;;4.95;67.02
42671;BME280;28283;55.426;37.756;2023-03-23T00:52:05;99208.16;;;4.91;66.88
42671;BME280;28283;55.426;37.756;2023-03-23T00:57:06;99199.34;;;4.91;67.10
42671;BME280;28283;55.426;37.756;2023-03-23T01:02:06;99198.16;;;4.93;67.24
42671;BME280;28283;55.426;37.756;2023-03-23T01:07:07;99195.00;;;4.90;67.38
42671;BME280;28283;55.426;37.756;2023-03-23T01:12:08;99185.84;;;4.92;66.91
42671;BME280;28283;55.426;37.756;2023-03-23T01:17:09;99176.84;;;4.93;67.23
42671;BME280;28283;55.426;37.756;2023-03-23T01:22:09;99176.56;;;4.88;67.35
42671;BME280;28283;55.426;37.756;2023-03-23T01:27:09;99171.38;;;4.87;67.68
42671;BME280;28283;55.426;37.756;2023-03-23T01:32:10;99163.88;;;4.82;67.55
42671;BME280;28283;55.426;37.756;2023-03-23T01:37:10;99159.06;;;4.86;67.58
42671;BME280;28283;55.426;37.756;2023-03-23T01:42:11;99158.41;;;4.84;67.87
42671;BME280;28283;55.426;37.756;2023-03-23T01:47:11;99158.06;;;4.78;67.81
42671;BME280;28283;55.426;37.756;2023-03-23T01:52:14;99149.91;;;4.72;68.14
42671;BME280;28283;55.426;37.756;2023-03-23T01:57:18;99143.28;;;4.76;68.03
42671;BME280;28283;55.426;37.756;2023-03-23T02:02:20;99150.09;;;4.70;68.10
42671;BME280;28283;55.426;37.756;2023-03-23T02:07:21;99108.69;;;4.43;68.24
42671;BME280;28283;55.426;37.756;2023-03-23T02:12:23;99144.44;;;4.57;68.48
42671;BME280;28283;55.426;37.756;2023-03-23T02:28:19;99135.66;;;4.40;69.33
42671;BME280;28283;55.426;37.756;2023-03-23T02:38:33;99135.31;;;4.18;69.93
42671;BME280;28283;55.426;37.756;2023-03-23T02:43:40;99145.09;;;4.10;70.16
42671;BME280;28283;55.426;37.756;2023-03-23T02:48:44;99137.59;;;4.05;70.82
42671;BME280;28283;55.426;37.756;2023-03-23T02:53:46;99133.94;;;3.98;71.13
42671;BME280;28283;55.426;37.756;2023-03-23T02:58:49;99141.06;;;3.89;71.60
42671;BME280;28283;55.426;37.756;2023-03-23T03:03:49;99138.56;;;3.79;71.91
42671;BME280;28283;55.426;37.756;2023-03-23T03:08:59;99136.22;;;3.76;72.26
42671;BME280;28283;55.426;37.756;2023-03-23T03:14:05;99141.88;;;3.73;72.71
42671;BME280;28283;55.426;37.756;2023-03-23T03:19:10;99135.03;;;3.71;73.16
42671;BME280;28283;55.426;37.756;2023-03-23T03:24:15;99134.03;;;3.63;73.39
42671;BME280;28283;55.426;37.756;2023-03-23T03:29:20;99132.53;;;3.61;74.18
42671;BME280;28283;55.426;37.756;2023-03-23T03:34:23;99129.84;;;3.53;74.13
42671;BME280;28283;55.426;37.756;2023-03-23T03:39:27;99136.47;;;3.49;74.63
42671;BME280;28283;55.426;37.756;2023-03-23T03:44:27;99138.63;;;3.45;74.69
42671;BME280;28283;55.426;37.756;2023-03-23T03:49:28;99127.13;;;3.44;75.29
42671;BME280;28283;55.426;37.756;2023-03-23T03:54:28;99120.53;;;3.49;75.57
42671;BME280;28283;55.426;37.756;2023-03-23T03:59:29;99130.66;;;3.45;75.77
42671;BME280;28283;55.426;37.756;2023-03-23T04:04:30;99111.91;;;3.55;76.19
42671;BME280;28283;55.426;37.756;2023-03-23T04:09:31;99109.41;;;3.53;75.92
42671;BME280;28283;55.426;37.756;2023-03-23T04:14:31;99109.75;;;3.58;76.64
42671;BME280;28283;55.426;37.756;2023-03-23T04:19:32;99109.25;;;3.55;76.44
42671;BME280;28283;55.426;37.756;2023-03-23T04:24:33;99106.28;;;3.58;76.41
42671;BME280;28283;55.426;37.756;2023-03-23T04:29:35;99109.63;;;3.68;76.77
42671;BME280;28283;55.426;37.756;2023-03-23T04:34:36;99113.78;;;3.71;76.72
42671;BME280;28283;55.426;37.756;2023-03-23T04:39:36;99112.31;;;3.85;76.71
42671;BME280;28283;55.426;37.756;2023-03-23T04:44:39;99111.34;;;4.02;76.83
42671;BME280;28283;55.426;37.756;2023-03-23T04:49:40;99114.34;;;4.15;76.89
42671;BME280;28283;55.426;37.756;2023-03-23T04:54:41;99106.19;;;4.33;76.67
42671;BME280;28283;55.426;37.756;2023-03-23T04:59:42;99103.69;;;4.48;76.60
42671;BME280;28283;55.426;37.756;2023-03-23T05:04:43;99096.38;;;4.67;76.51
42671;BME280;28283;55.426;37.756;2023-03-23T05:09:46;99094.00;;;4.80;76.55
42671;BME280;28283;55.426;37.756;2023-03-23T05:14:47;99083.94;;;4.98;76.28
42671;BME280;28283;55.426;37.756;2023-03-23T05:19:48;99090.50;;;5.27;75.48
42671;BME280;28283;55.426;37.756;2023-03-23T05:24:48;99076.91;;;5.45;75.82
42671;BME280;28283;55.426;37.756;2023-03-23T05:29:51;99082.94;;;5.70;75.52
42671;BME280;28283;55.426;37.756;2023-03-23T05:34:52;99091.78;;;6.02;74.47
42671;BME280;28283;55.426;37.756;2023-03-23T05:39:53;99097.09;;;6.25;73.74
42671;BME280;28283;55.426;37.756;2023-03-23T05:44:55;99097.44;;;6.45;73.22
42671;BME280;28283;55.426;37.756;2023-03-23T05:49:56;99100.88;;;6.69;71.19
42671;BME280;28283;55.426;37.756;2023-03-23T05:54:56;99102.56;;;6.85;71.84
42671;BME280;28283;55.426;37.756;2023-03-23T05:59:57;99090.03;;;7.15;70.58
42671;BME280;28283;55.426;37.756;2023-03-23T06:04:57;99103.22;;;7.32;69.58
42671;BME280;28283;55.426;37.756;2023-03-23T06:09:58;99097.13;;;7.38;69.17
42671;BME280;28283;55.426;37.756;2023-03-23T06:14:59;99106.22;;;7.58;67.42
42671;BME280;28283;55.426;37.756;2023-03-23T06:19:59;99091.09;;;7.87;65.88
42671;BME280;28283;55.426;37.756;2023-03-23T06:25:00;99091.59;;;7.76;65.26
42671;BME280;28283;55.426;37.756;2023-03-23T06:30:01;99096.59;;;7.79;65.58
42671;BME280;28283;55.426;37.756;2023-03-23T06:35:02;99086.91;;;7.99;65.42
42671;BME280;28283;55.426;37.756;2023-03-23T06:40:03;99102.19;;;8.27;63.94
42671;BME280;28283;55.426;37.756;2023-03-23T06:45:06;99088.94;;;8.19;64.58
42671;BME280;28283;55.426;37.756;2023-03-23T06:50:07;99094.38;;;8.47;63.00
42671;BME280;28283;55.426;37.756;2023-03-23T06:55:08;99105.09;;;8.47;62.72
42671;BME280;28283;55.426;37.756;2023-03-23T07:00:09;99098.06;;;8.46;62.95
42671;BME280;28283;55.426;37.756;2023-03-23T07:05:12;99104.56;;;8.87;62.47
42671;BME280;28283;55.426;37.756;2023-03-23T07:10:13;99096.13;;;8.90;63.02
42671;BME280;28283;55.426;37.756;2023-03-23T07:15:13;99081.03;;;9.17;60.44
42671;BME280;28283;55.426;37.756;2023-03-23T07:20:14;99080.16;;;9.10;61.63
42671;BME280;28283;55.426;37.756;2023-03-23T07:25:15;99066.50;;;9.46;59.65
42671;BME280;28283;55.426;37.756;2023-03-23T07:30:16;99068.09;;;9.34;60.41
42671;BME280;28283;55.426;37.756;2023-03-23T07:35:16;99059.69;;;9.50;59.95
42671;BME280;28283;55.426;37.756;2023-03-23T07:40:17;99046.75;;;9.61;59.22
42671;BME280;28283;55.426;37.756;2023-03-23T07:45:18;99040.81;;;9.92;57.61
42671;BME280;28283;55.426;37.756;2023-03-23T07:50:18;99047.84;;;10.06;56.19
42671;BME280;28283;55.426;37.756;2023-03-23T07:55:22;99049.50;;;10.07;56.93
42671;BME280;28283;55.426;37.756;2023-03-23T08:00:24;99037.75;;;10.28;56.12
42671;BME280;28283;55.426;37.756;2023-03-23T08:05:26;99044.78;;;10.69;52.43
42671;BME280;28283;55.426;37.756;2023-03-23T08:10:27;99040.22;;;10.57;51.74
42671;BME280;28283;55.426;37.756;2023-03-23T08:15:28;99014.00;;;10.45;51.25
42671;BME280;28283;55.426;37.756;2023-03-23T08:20:29;99003.25;;;10.25;51.99
42671;BME280;28283;55.426;37.756;2023-03-23T08:25:30;99034.66;;;10.18;52.00
42671;BME280;28283;55.426;37.756;2023-03-23T08:30:31;99021.59;;;10.08;52.27
42671;BME280;28283;55.426;37.756;2023-03-23T08:35:33;99020.97;;;9.86;53.17
42671;BME280;28283;55.426;37.756;2023-03-23T08:40:34;99022.03;;;10.12;51.81
42671;BME280;28283;55.426;37.756;2023-03-23T08:45:34;99017.91;;;10.09;51.88
42671;BME280;28283;55.426;37.756;2023-03-23T08:50:35;99005.94;;;10.05;52.12
42671;BME280;28283;55.426;37.756;2023-03-23T08:55:35;99001.19;;;10.07;52.74
42671;BME280;28283;55.426;37.756;2023-03-23T09:00:36;99003.22;;;10.19;52.09
42671;BME280;28283;55.426;37.756;2023-03-23T09:05:36;99000.97;;;10.29;51.49
42671;BME280;28283;55.426;37.756;2023-03-23T09:10:39;98985.25;;;10.46;51.49
42671;BME280;28283;55.426;37.756;2023-03-23T09:15:39;98989.81;;;10.45;51.58
42671;BME280;28283;55.426;37.756;2023-03-23T09:20:40;98979.69;;;10.41;52.67
42671;BME280;28283;55.426;37.756;2023-03-23T09:25:42;98961.22;;;10.78;52.00
42671;BME280;28283;55.426;37.756;2023-03-23T09:30:43;98967.91;;;11.07;50.29
42671;BME280;28283;55.426;37.756;2023-03-23T09:35:44;98899.88;;;11.38;48.61
42671;BME280;28283;55.426;37.756;2023-03-23T09:40:48;98937.69;;;11.12;49.91
42671;BME280;28283;55.426;37.756;2023-03-23T09:50:52;98927.16;;;11.49;49.31
42671;BME280;28283;55.426;37.756;2023-03-23T09:55:53;98918.84;;;11.75;47.61
42671;BME280;28283;55.426;37.756;2023-03-23T10:06:09;98914.25;;;11.82;46.64
42671;BME280;28283;55.426;37.756;2023-03-23T10:11:26;98895.34;;;11.89;47.32
42671;BME280;28283;55.426;37.756;2023-03-23T10:16:36;98891.78;;;12.20;47.33
42671;BME280;28283;55.426;37.756;2023-03-23T10:21:39;98890.59;;;12.53;46.69
42671;BME280;28283;55.426;37.756;2023-03-23T10:31:58;98855.53;;;13.02;45.09
42671;BME280;28283;55.426;37.756;2023-03-23T10:42:00;98855.47;;;13.21;44.47
42671;BME280;28283;55.426;37.756;2023-03-23T10:47:07;98852.75;;;13.39;43.60
42671;BME280;28283;55.426;37.756;2023-03-23T10:57:28;98865.34;;;13.57;43.80
42671;BME280;28283;55.426;37.756;2023-03-23T11:02:31;98875.94;;;13.82;43.62
42671;BME280;28283;55.426;37.756;2023-03-23T11:07:33;98863.13;;;14.01;43.45
42671;BME280;28283;55.426;37.756;2023-03-23T11:12:34;98854.53;;;14.40;42.72
42671;BME280;28283;55.426;37.756;2023-03-23T11:17:35;98848.06;;;14.93;40.37
42671;BME280;28283;55.426;37.756;2023-03-23T11:22:35;98850.97;;;14.51;41.63
42671;BME280;28283;55.426;37.756;2023-03-23T11:27:37;98846.53;;;14.85;40.82
42671;BME280;28283;55.426;37.756;2023-03-23T11:32:42;98848.63;;;14.95;40.78
42671;BME280;28283;55.426;37.756;2023-03-23T11:37:45;98847.84;;;15.12;40.35
42671;BME280;28283;55.426;37.756;2023-03-23T11:42:49;98838.41;;;15.14;39.67
42671;BME280;28283;55.426;37.756;2023-03-23T11:57:55;98844.50;;;15.21;38.86
42671;BME280;28283;55.426;37.756;2023-03-23T12:02:57;98850.22;;;15.08;38.82
42671;BME280;28283;55.426;37.756;2023-03-23T12:13:05;98853.53;;;14.69;39.55
42671;BME280;28283;55.426;37.756;2023-03-23T12:54:03;98824.31;;;13.36;42.49
42671;BME280;28283;55.426;37.756;2023-03-23T12:59:41;98815.06;;;13.32;43.09
42671;BME280;28283;55.426;37.756;2023-03-23T13:04:36;98807.34;;;13.60;42.06
42671;BME280;28283;55.426;37.756;2023-03-23T13:09:46;98812.75;;;13.48;42.59
42671;BME280;28283;55.426;37.756;2023-03-23T13:20:11;98811.53;;;13.44;42.79
42671;BME280;28283;55.426;37.756;2023-03-23T13:25:17;98808.97;;;13.49;42.70
42671;BME280;28283;55.426;37.756;2023-03-23T13:30:20;98769.28;;;13.49;42.37
42671;BME280;28283;55.426;37.756;2023-03-23T13:35:24;98800.16;;;12.99;43.83
42671;BME280;28283;55.426;37.756;2023-03-23T13:40:28;98790.75;;;12.90;43.76
42671;BME280;28283;55.426;37.756;2023-03-23T13:50:30;98783.06;;;12.75;44.25
42671;BME280;28283;55.426;37.756;2023-03-23T13:55:39;98791.53;;;12.79;44.01
42671;BME280;28283;55.426;37.756;2023-03-23T14:00:45;98790.41;;;12.56;44.96
42671;BME280;28283;55.426;37.756;2023-03-23T14:05:51;98790.53;;;12.62;45.35
42671;BME280;28283;55.426;37.756;2023-03-23T14:10:53;98783.19;;;12.69;44.99
42671;BME280;28283;55.426;37.756;2023-03-23T14:16:00;98778.66;;;12.51;45.38
42671;BME280;28283;55.426;37.756;2023-03-23T14:21:01;98775.53;;;12.35;45.43
42671;BME280;28283;55.426;37.756;2023-03-23T14:26:02;98766.84;;;12.33;45.58
42671;BME280;28283;55.426;37.756;2023-03-23T14:31:19;98762.28;;;12.15;45.56
42671;BME280;28283;55.426;37.756;2023-03-23T14:36:23;98775.28;;;12.18;46.31
42671;BME280;28283;55.426;37.756;2023-03-23T14:41:27;98765.50;;;12.06;46.30
42671;BME280;28283;55.426;37.756;2023-03-23T14:46:28;98767.13;;;11.88;47.39
42671;BME280;28283;55.426;37.756;2023-03-23T14:51:30;98757.59;;;11.92;47.72
42671;BME280;28283;55.426;37.756;2023-03-23T14:56:34;98756.50;;;11.75;47.64
42671;BME280;28283;55.426;37.756;2023-03-23T15:01:36;98749.00;;;11.58;48.46
42671;BME280;28283;55.426;37.756;2023-03-23T15:06:37;98750.34;;;11.49;48.98
42671;BME280;28283;55.426;37.756;2023-03-23T15:11:39;98753.06;;;11.42;48.92
42671;BME280;28283;55.426;37.756;2023-03-23T15:16:40;98752.44;;;11.22;49.10
42671;BME280;28283;55.426;37.756;2023-03-23T15:22:12;98739.00;;;11.22;49.57
42671;BME280;28283;55.426;37.756;2023-03-23T15:27:17;98730.75;;;11.17;49.77
42671;BME280;28283;55.426;37.756;2023-03-23T15:32:21;98725.47;;;11.03;49.72
42671;BME280;28283;55.426;37.756;2023-03-23T15:37:27;98721.19;;;10.96;50.10
42671;BME280;28283;55.426;37.756;2023-03-23T15:42:29;98725.41;;;10.85;50.95
42671;BME280;28283;55.426;37.756;2023-03-23T15:47:34;98720.31;;;10.77;50.60
42671;BME280;28283;55.426;37.756;2023-03-23T15:52:35;98720.56;;;10.68;51.17
42671;BME280;28283;55.426;37.756;2023-03-23T15:57:35;98729.31;;;10.57;51.24
42671;BME280;28283;55.426;37.756;2023-03-23T16:02:36;98724.81;;;10.51;51.51
42671;BME280;28283;55.426;37.756;2023-03-23T16:07:36;98723.00;;;10.45;51.70
42671;BME280;28283;55.426;37.756;2023-03-23T16:12:37;98720.50;;;10.43;51.55
42671;BME280;28283;55.426;37.756;2023-03-23T16:17:37;98718.03;;;10.42;51.77
42671;BME280;28283;55.426;37.756;2023-03-23T16:22:38;98719.50;;;10.38;51.88
42671;BME280;28283;55.426;37.756;2023-03-23T16:27:39;98712.09;;;10.26;51.85
42671;BME280;28283;55.426;37.756;2023-03-23T16:32:40;98724.31;;;10.22;52.30
42671;BME280;28283;55.426;37.756;2023-03-23T16:37:47;98714.25;;;10.11;52.35
42671;BME280;28283;55.426;37.756;2023-03-23T16:42:47;98708.09;;;9.97;52.33
42671;BME280;28283;55.426;37.756;2023-03-23T16:47:48;98717.22;;;9.96;53.04
42671;BME280;28283;55.426;37.756;2023-03-23T16:52:48;98711.44;;;9.86;52.86
42671;BME280;28283;55.426;37.756;2023-03-23T16:57:49;98702.38;;;9.80;52.93
42671;BME280;28283;55.426;37.756;2023-03-23T17:02:50;98712.91;;;9.82;52.95
42671;BME280;28283;55.426;37.756;2023-03-23T17:07:51;98702.59;;;9.85;52.97
42671;BME280;28283;55.426;37.756;2023-03-23T17:12:52;98694.34;;;9.73;53.18
42671;BME280;28283;55.426;37.756;2023-03-23T17:17:52;98688.59;;;9.70;53.16
42671;BME280;28283;55.426;37.756;2023-03-23T17:22:54;98696.84;;;9.62;53.38
42671;BME280;28283;55.426;37.756;2023-03-23T17:27:54;98682.47;;;9.49;53.44
42671;BME280;28283;55.426;37.756;2023-03-23T17:32:55;98678.53;;;9.45;53.69
42671;BME280;28283;55.426;37.756;2023-03-23T17:37:55;98677.72;;;9.38;53.53
42671;BME280;28283;55.426;37.756;2023-03-23T17:42:56;98651.94;;;9.37;53.75
42671;BME280;28283;55.426;37.756;2023-03-23T17:47:56;98650.69;;;9.33;53.93
42671;BME280;28283;55.426;37.756;2023-03-23T17:52:56;98637.53;;;9.25;54.07
42671;BME280;28283;55.426;37.756;2023-03-23T17:57:59;98630.94;;;9.21;54.19
42671;BME280;28283;55.426;37.756;2023-03-23T18:03:00;98610.31;;;9.14;54.19
42671;BME280;28283;55.426;37.756;2023-03-23T18:08:00;98618.59;;;9.06;54.54
42671;BME280;28283;55.426;37.756;2023-03-23T18:13:01;98607.47;;;8.96;55.12
42671;BME280;28283;55.426;37.756;2023-03-23T18:18:03;98609.56;;;8.94;55.58
42671;BME280;28283;55.426;37.756;2023-03-23T18:23:03;98601.31;;;8.89;56.00
42671;BME280;28283;55.426;37.756;2023-03-23T18:28:05;98607.91;;;8.79;56.19
42671;BME280;28283;55.426;37.756;2023-03-23T18:33:06;98598.81;;;8.74;56.53
42671;BME280;28283;55.426;37.756;2023-03-23T18:38:06;98598.00;;;8.73;57.30
42671;BME280;28283;55.426;37.756;2023-03-23T18:43:07;98585.63;;;8.79;57.39
42671;BME280;28283;55.426;37.756;2023-03-23T18:48:07;98576.38;;;8.82;57.63
42671;BME280;28283;55.426;37.756;2023-03-23T18:53:10;98579.06;;;8.75;57.91
42671;BME280;28283;55.426;37.756;2023-03-23T18:58:14;98566.66;;;8.81;58.17
42671;BME280;28283;55.426;37.756;2023-03-23T19:03:15;98569.16;;;8.75;58.46
42671;BME280;28283;55.426;37.756;2023-03-23T19:08:18;98564.00;;;8.81;58.62
42671;BME280;28283;55.426;37.756;2023-03-23T19:13:18;98558.44;;;8.75;59.18
42671;BME280;28283;55.426;37.756;2023-03-23T19:18:19;98568.34;;;8.82;59.26
42671;BME280;28283;55.426;37.756;2023-03-23T19:23:22;98564.41;;;8.84;59.29
42671;BME280;28283;55.426;37.756;2023-03-23T19:28:22;98551.84;;;8.85;59.62
42671;BME280;28283;55.426;37.756;2023-03-23T19:33:23;98555.34;;;8.78;59.77
42671;BME280;28283;55.426;37.756;2023-03-23T19:38:27;98548.53;;;8.83;59.86
42671;BME280;28283;55.426;37.756;2023-03-23T19:43:28;98525.47;;;8.75;59.85
42671;BME280;28283;55.426;37.756;2023-03-23T19:48:28;98535.97;;;8.76;60.08
42671;BME280;28283;55.426;37.756;2023-03-23T19:53:30;98523.19;;;8.72;60.21
42671;BME280;28283;55.426;37.756;2023-03-23T19:58:30;98514.94;;;8.73;60.34
42671;BME280;28283;55.426;37.756;2023-03-23T20:03:31;98501.56;;;8.67;61.04
42671;BME280;28283;55.426;37.756;2023-03-23T20:08:32;98501.16;;;8.63;60.68
42671;BME280;28283;55.426;37.756;2023-03-23T20:13:32;98506.09;;;8.59;61.55
42671;BME280;28283;55.426;37.756;2023-03-23T20:18:36;98500.34;;;8.56;61.19
42671;BME280;28283;55.426;37.756;2023-03-23T20:23:37;98495.63;;;8.51;61.69
42671;BME280;28283;55.426;37.756;2023-03-23T20:28:38;98477.91;;;8.50;61.60
42671;BME280;28283;55.426;37.756;2023-03-23T20:33:38;98481.84;;;8.54;62.12
42671;BME280;28283;55.426;37.756;2023-03-23T20:38:39;98425.16;;;8.37;62.17
42671;BME280;28283;55.426;37.756;2023-03-23T20:43:42;98460.41;;;8.54;62.39
42671;BME280;28283;55.426;37.756;2023-03-23T20:48:42;98439.78;;;8.55;62.31
42671;BME280;28283;55.426;37.756;2023-03-23T20:53:43;98441.41;;;8.56;62.35
42671;BME280;28283;55.426;37.756;2023-03-23T20:58:44;98438.75;;;8.56;62.84
42671;BME280;28283;55.426;37.756;2023-03-23T21:03:44;98461.44;;;8.53;63.05
42671;BME280;28283;55.426;37.756;2023-03-23T21:08:45;98451.31;;;8.49;63.36
42671;BME280;28283;55.426;37.756;2023-03-23T21:13:45;98468.84;;;8.58;64.03
42671;BME280;28283;55.426;37.756;2023-03-23T21:18:46;98459.97;;;8.57;63.50
42671;BME280;28283;55.426;37.756;2023-03-23T21:23:46;98456.25;;;8.58;64.27
42671;BME280;28283;55.426;37.756;2023-03-23T21:28:51;98444.09;;;8.56;64.10
42671;BME280;28283;55.426;37.756;2023-03-23T21:33:52;98429.88;;;8.55;64.50
42671;BME280;28283;55.426;37.756;2023-03-23T21:38:53;98427.19;;;8.62;64.35
42671;BME280;28283;55.426;37.756;2023-03-23T21:43:54;98421.84;;;8.62;64.37
42671;BME280;28283;55.426;37.756;2023-03-23T21:48:55;98410.53;;;8.60;64.73
42671;BME280;28283;55.426;37.756;2023-03-23T21:53:56;98405.38;;;8.52;64.56
42671;BME280;28283;55.426;37.756;2023-03-23T21:58:57;98399.81;;;8.53;64.97
42671;BME280;28283;55.426;37.756;2023-03-23T22:03:57;98396.31;;;8.53;64.74
42671;BME280;28283;55.426;37.756;2023-03-23T22:08:57;98376.78;;;8.46;65.34
42671;BME280;28283;55.426;37.756;2023-03-23T22:13:58;98375.72;;;8.47;64.96
42671;BME280;28283;55.426;37.756;2023-03-23T22:18:59;98371.19;;;8.40;65.60
42671;BME280;28283;55.426;37.756;2023-03-23T22:24:01;98373.69;;;8.35;65.93
42671;BME280;28283;55.426;37.756;2023-03-23T22:29:01;98387.47;;;8.32;65.63
42671;BME280;28283;55.426;37.756;2023-03-23T22:34:02;98354.13;;;8.28;66.30
42671;BME280;28283;55.426;37.756;2023-03-23T22:39:03;98359.69;;;8.33;66.52
42671;BME280;28283;55.426;37.756;2023-03-23T22:44:03;98352.06;;;8.30;66.58
42671;BME280;28283;55.426;37.756;2023-03-23T22:49:07;98340.16;;;8.19;67.03
42671;BME280;28283;55.426;37.756;2023-03-23T22:54:08;98331.72;;;8.22;66.65
42671;BME280;28283;55.426;37.756;2023-03-23T22:59:09;98330.25;;;8.27;66.84
42671;BME280;28283;55.426;37.756;2023-03-23T23:04:10;98318.31;;;8.29;67.09
42671;BME280;28283;55.426;37.756;2023-03-23T23:09:10;98317.50;;;8.22;67.43
42671;BME280;28283;55.426;37.756;2023-03-23T23:14:11;98309.69;;;8.20;67.43
42671;BME280;28283;55.426;37.756;2023-03-23T23:19:11;98292.63;;;8.15;67.28
42671;BME280;28283;55.426;37.756;2023-03-23T23:24:12;98283.13;;;8.19;67.77
42671;BME280;28283;55.426;37.756;2023-03-23T23:29:12;98280.84;;;8.16;67.94
42671;BME280;28283;55.426;37.756;2023-03-23T23:34:13;98267.88;;;8.19;67.68
42671;BME280;28283;55.426;37.756;2023-03-23T23:39:13;98254.94;;;8.10;67.80
42671;BME280;28283;55.426;37.756;2023-03-23T23:44:14;98247.13;;;8.15;68.39
42671;BME280;28283;55.426;37.756;2023-03-23T23:49:14;98229.22;;;8.09;68.23
42671;BME280;28283;55.426;37.756;2023-03-23T23:54:15;98228.59;;;8.13;68.41
42671;BME280;28283;55.426;37.756;2023-03-23T23:59:22;98216.44;;;8.11;68.63
